Time;durP1;ratioP1;P1;durP2;ratioP2;P2;SDS_P1;SDS_P2;PMS_P1;PMS_P2;Temp;Humidity;BMP_temperature;BMP_pressure;BME280_temperature;BME280_humidity;BME280_pressure;Samples;Min_cycle;Max_cycle;Signal;HPM_P1;HPM_P2
2023/06/27 00:01:44;;;;;;;14.40;3.28;;;18.50;99.90;;;;;;4901547;29;38948;-79
2023/06/27 00:04:10;;;;;;;11.32;2.72;;;18.50;97.00;;;;;;4898028;29;38472;-79
2023/06/27 00:06:37;;;;;;;18.77;4.03;;;18.50;95.80;;;;;;4909661;29;37192;-79
2023/06/27 00:09:09;;;;;;;12.77;2.60;;;18.60;91.00;;;;;;4898670;29;38089;-78
2023/06/27 00:11:39;;;;;;;16.30;3.17;;;18.60;83.70;;;;;;4885805;29;37599;-79
2023/06/27 00:14:08;;;;;;;13.35;3.05;;;18.70;73.60;;;;;;4902542;29;37082;-79
2023/06/27 00:16:35;;;;;;;11.25;2.63;;;18.70;59.30;;;;;;4903350;29;39478;-79
2023/06/27 00:19:03;;;;;;;14.32;3.00;;;18.60;56.50;;;;;;4901050;29;36958;-78
2023/06/27 00:21:31;;;;;;;8.77;2.60;;;18.70;50.50;;;;;;4890188;29;38883;-79
2023/06/27 00:23:59;;;;;;;12.35;2.45;;;18.60;41.10;;;;;;4887477;29;39109;-79
2023/06/27 00:26:27;;;;;;;11.30;2.45;;;18.70;43.40;;;;;;4899836;29;38273;-79
2023/06/27 00:28:54;;;;;;;10.48;2.30;;;18.60;39.50;;;;;;4898340;29;38966;-79
2023/06/27 00:31:20;;;;;;;11.75;2.63;;;18.60;42.90;;;;;;4893992;29;38787;-79
2023/06/27 00:33:47;;;;;;;9.27;2.33;;;18.60;42.00;;;;;;4893870;29;38962;-79
2023/06/27 00:36:14;;;;;;;9.02;2.45;;;18.60;46.10;;;;;;4889625;29;37308;-79
2023/06/27 00:38:40;;;;;;;11.23;2.35;;;18.60;42.30;;;;;;4894624;29;36348;-80
2023/06/27 00:41:07;;;;;;;11.55;2.25;;;18.50;44.00;;;;;;4897313;29;38380;-79
2023/06/27 00:43:33;;;;;;;7.80;2.08;;;18.50;38.00;;;;;;4900350;29;38533;-79
2023/06/27 00:46:05;;;;;;;8.63;2.20;;;18.50;32.50;;;;;;4896107;29;38138;-79
2023/06/27 00:48:32;;;;;;;7.85;1.92;;;18.50;25.50;;;;;;4891016;29;48837;-79
2023/06/27 00:50:59;;;;;;;10.07;2.33;;;18.50;33.50;;;;;;4893816;29;37713;-79
2023/06/27 00:53:26;;;;;;;7.85;2.13;;;18.50;24.10;;;;;;4897876;29;39637;-79
2023/06/27 00:55:53;;;;;;;9.50;2.08;;;18.50;29.70;;;;;;4895310;29;37385;-79
2023/06/27 00:58:20;;;;;;;8.35;1.95;;;18.50;23.60;;;;;;4896984;28;35993;-79
2023/06/27 01:03:22;;;;;;;8.18;2.22;;;18.60;32.10;;;;;;5029413;23;20049;-79
2023/06/27 01:05:49;;;;;;;10.60;2.80;;;18.60;36.90;;;;;;4888407;29;36936;-79
2023/06/27 01:08:41;;;;;;;7.88;1.95;;;18.60;40.30;;;;;;4886528;29;37419;-79
2023/06/27 01:11:07;;;;;;;6.90;1.67;;;18.50;38.30;;;;;;4882810;29;37854;-80
2023/06/27 01:13:43;;;;;;;7.35;2.10;;;18.50;39.70;;;;;;4885519;29;37275;-78
2023/06/27 01:16:10;;;;;;;7.57;1.90;;;18.50;49.90;;;;;;4887503;29;39010;-79
2023/06/27 01:18:39;;;;;;;6.75;2.03;;;18.40;50.40;;;;;;4886340;29;38349;-79
2023/06/27 01:21:09;;;;;;;7.78;2.38;;;18.40;56.60;;;;;;4893039;29;37408;-79
2023/06/27 01:23:58;;;;;;;6.30;2.33;;;18.30;63.00;;;;;;4895842;29;38965;-79
2023/06/27 01:26:27;;;;;;;10.07;2.28;;;18.30;71.40;;;;;;4891548;29;37162;-79
2023/06/27 01:28:53;;;;;;;7.15;2.17;;;18.30;66.60;;;;;;4884407;29;36078;-79
2023/06/27 01:31:41;;;;;;;8.02;2.13;;;18.30;60.10;;;;;;4899089;28;39977;-79
2023/06/27 01:34:23;;;;;;;11.77;2.90;;;18.30;60.70;;;;;;4889031;29;39407;-79
2023/06/27 01:36:58;;;;;;;6.10;2.20;;;18.30;70.60;;;;;;4900831;28;38398;-79
2023/06/27 01:39:30;;;;;;;8.20;2.70;;;18.20;79.30;;;;;;4895144;29;37171;-79
2023/06/27 01:42:02;;;;;;;6.93;2.50;;;18.30;73.70;;;;;;4894332;29;38683;-78
2023/06/27 01:44:29;;;;;;;;;;;18.30;77.20;;;;;;4896953;29;46981;-79
2023/06/27 01:46:55;;;;;;;6.18;2.13;;;18.30;80.40;;;;;;4894222;29;38590;-79
2023/06/27 01:49:23;;;;;;;7.28;2.20;;;18.30;75.30;;;;;;4895467;29;35974;-79
2023/06/27 01:51:49;;;;;;;9.65;2.05;;;18.30;71.80;;;;;;4896269;28;39677;-78
2023/06/27 01:54:15;;;;;;;6.35;2.30;;;18.30;66.20;;;;;;4888543;29;37155;-78
2023/06/27 01:56:41;;;;;;;7.63;2.40;;;18.20;67.70;;;;;;4887337;29;37612;-79
2023/06/27 01:59:07;;;;;;;9.73;2.20;;;18.20;70.10;;;;;;4890140;29;35913;-79
2023/06/27 02:01:33;;;;;;;8.80;2.25;;;18.20;77.70;;;;;;4889605;29;38266;-79
2023/06/27 02:04:01;;;;;;;7.60;1.85;;;18.10;88.60;;;;;;4889786;29;39127;-79
2023/06/27 02:06:27;;;;;;;5.45;2.20;;;18.10;90.10;;;;;;4886082;29;48070;-79
2023/06/27 02:08:53;;;;;;;10.75;2.78;;;18.00;92.50;;;;;;4892953;29;37761;-79
2023/06/27 02:11:19;;;;;;;8.35;2.05;;;17.90;90.50;;;;;;4888300;29;37972;-79
2023/06/27 02:13:45;;;;;;;5.85;2.70;;;17.80;93.50;;;;;;4894870;29;38370;-79
2023/06/27 02:16:11;;;;;;;9.45;2.88;;;17.80;94.80;;;;;;4895658;28;38784;-79
2023/06/27 02:18:38;;;;;;;6.93;3.00;;;17.80;95.80;;;;;;4890283;29;36718;-79
2023/06/27 02:21:04;;;;;;;11.30;2.75;;;17.80;96.40;;;;;;4888020;29;37451;-78
2023/06/27 02:23:30;;;;;;;10.25;2.50;;;17.80;94.00;;;;;;4890609;29;38945;-79
2023/06/27 02:25:56;;;;;;;5.93;2.17;;;17.80;97.00;;;;;;4896210;29;39331;-79
2023/06/27 02:28:22;;;;;;;7.30;2.17;;;17.70;98.70;;;;;;4900129;29;37448;-79
2023/06/27 02:30:48;;;;;;;15.35;2.83;;;17.70;97.30;;;;;;4895889;29;38745;-79
2023/06/27 02:33:14;;;;;;;7.82;2.13;;;17.70;99.60;;;;;;4885847;29;39141;-79
2023/06/27 02:35:40;;;;;;;9.93;2.60;;;17.60;99.90;;;;;;4893735;29;37992;-79
2023/06/27 02:38:07;;;;;;;8.60;3.20;;;17.60;99.90;;;;;;4886147;29;36864;-77
2023/06/27 02:40:33;;;;;;;6.53;2.20;;;17.50;99.90;;;;;;4880873;29;37805;-78
2023/06/27 02:42:59;;;;;;;8.73;2.70;;;17.50;99.90;;;;;;4884121;29;37058;-78
2023/06/27 02:45:25;;;;;;;8.05;2.35;;;17.50;99.90;;;;;;4888996;29;37777;-78
2023/06/27 02:47:51;;;;;;;8.30;2.55;;;17.40;99.90;;;;;;4888578;29;36382;-77
2023/06/27 02:50:17;;;;;;;8.10;2.00;;;17.40;99.90;;;;;;4883783;29;37438;-77
2023/06/27 02:52:43;;;;;;;6.72;1.95;;;17.30;99.90;;;;;;4890294;29;37137;-77
2023/06/27 02:55:10;;;;;;;5.07;2.33;;;17.20;99.90;;;;;;4891038;29;36868;-78
2023/06/27 02:57:36;;;;;;;5.53;1.98;;;17.30;99.90;;;;;;4889419;29;36718;-78
2023/06/27 03:00:04;;;;;;;12.48;2.60;;;17.30;99.90;;;;;;4898183;29;37908;-78
2023/06/27 03:02:30;;;;;;;6.00;2.15;;;17.30;99.90;;;;;;4888915;29;38574;-77
2023/06/27 03:04:56;;;;;;;8.20;2.45;;;17.30;99.90;;;;;;4894652;29;37969;-77
2023/06/27 03:07:22;;;;;;;5.90;2.10;;;17.20;99.90;;;;;;4887129;29;36162;-77
2023/06/27 03:09:48;;;;;;;9.65;2.28;;;17.20;99.90;;;;;;4899323;29;39895;-77
2023/06/27 03:12:14;;;;;;;7.55;2.33;;;17.10;99.90;;;;;;4885250;29;36965;-77
2023/06/27 03:14:40;;;;;;;9.43;2.80;;;17.10;99.90;;;;;;4887863;29;37084;-77
2023/06/27 03:17:06;;;;;;;9.63;2.60;;;17.10;99.90;;;;;;4887151;29;37087;-78
2023/06/27 03:19:32;;;;;;;8.65;2.47;;;17.10;99.90;;;;;;4889490;29;39132;-77
2023/06/27 03:21:58;;;;;;;10.13;2.83;;;17.00;99.90;;;;;;4893319;29;39841;-78
2023/06/27 03:24:25;;;;;;;6.25;2.45;;;17.00;99.90;;;;;;4887560;29;36783;-78
2023/06/27 03:26:51;;;;;;;8.88;2.60;;;17.00;99.90;;;;;;4882336;29;37465;-77
2023/06/27 03:29:17;;;;;;;9.60;2.55;;;16.90;99.90;;;;;;4895352;28;38968;-78
2023/06/27 03:31:43;;;;;;;6.97;2.83;;;16.90;99.90;;;;;;4894066;29;38888;-78
2023/06/27 03:34:09;;;;;;;10.45;2.50;;;16.90;99.90;;;;;;4897779;29;37789;-78
2023/06/27 03:36:35;;;;;;;8.40;2.50;;;16.80;99.90;;;;;;4900112;29;35639;-78
2023/06/27 03:39:02;;;;;;;6.85;3.38;;;16.80;99.90;;;;;;4891870;29;38717;-77
2023/06/27 03:41:28;;;;;;;7.35;2.20;;;16.80;99.90;;;;;;4892899;29;47763;-79
2023/06/27 03:43:54;;;;;;;9.00;2.70;;;16.80;99.90;;;;;;4894530;29;37068;-78
2023/06/27 03:46:20;;;;;;;9.85;2.55;;;16.80;99.90;;;;;;4898491;29;38151;-78
2023/06/27 03:48:53;;;;;;;8.43;2.30;;;16.80;99.90;;;;;;4888083;29;20041;-77
2023/06/27 03:51:19;;;;;;;7.45;2.42;;;16.80;99.90;;;;;;4890218;29;38335;-76
2023/06/27 03:53:45;;;;;;;6.20;2.58;;;16.80;99.90;;;;;;4886295;29;37617;-79
2023/06/27 03:56:11;;;;;;;6.30;2.10;;;16.90;99.90;;;;;;4882383;29;38215;-77
2023/06/27 03:58:37;;;;;;;5.43;2.40;;;16.80;99.90;;;;;;4886706;29;38671;-77
2023/06/27 04:01:03;;;;;;;12.05;2.72;;;16.70;99.90;;;;;;4891097;29;38772;-78
2023/06/27 04:03:36;;;;;;;4.65;2.20;;;16.70;99.90;;;;;;4895272;29;39211;-78
2023/06/27 04:06:03;;;;;;;8.13;2.78;;;16.70;99.90;;;;;;4900019;29;37345;-77
2023/06/27 04:08:29;;;;;;;6.93;2.80;;;16.60;99.90;;;;;;4893361;29;38155;-77
2023/06/27 04:11:10;;;;;;;7.40;2.60;;;16.60;99.90;;;;;;4895456;29;38479;-78
2023/06/27 04:13:37;;;;;;;5.75;2.65;;;16.60;99.90;;;;;;4877513;29;49016;-78
2023/06/27 04:16:04;;;;;;;6.47;2.45;;;16.60;99.90;;;;;;4893275;29;35977;-78
2023/06/27 04:18:30;;;;;;;8.15;2.78;;;16.60;99.90;;;;;;4895523;29;38733;-78
2023/06/27 04:20:57;;;;;;;11.43;2.30;;;16.50;99.90;;;;;;4894014;29;37748;-78
2023/06/27 04:23:23;;;;;;;10.40;2.42;;;16.50;99.90;;;;;;4890887;29;37911;-78
2023/06/27 04:26:03;;;;;;;7.07;2.60;;;16.40;99.90;;;;;;4887096;29;35997;-77
2023/06/27 04:28:36;;;;;;;4.75;2.17;;;16.40;99.90;;;;;;4883073;29;47013;-79
2023/06/27 04:31:02;;;;;;;9.52;2.70;;;16.40;99.90;;;;;;4886229;29;38041;-77
2023/06/27 04:33:29;;;;;;;6.20;2.25;;;16.50;99.90;;;;;;4902744;29;38266;-78
2023/06/27 04:36:00;;;;;;;9.75;2.70;;;16.50;99.90;;;;;;4888156;29;36110;-78
2023/06/27 04:38:37;;;;;;;8.48;2.97;;;16.40;99.90;;;;;;4891118;29;47155;-78
2023/06/27 04:41:04;;;;;;;9.55;2.75;;;16.50;99.90;;;;;;4886169;28;38692;-78
2023/06/27 04:43:32;;;;;;;12.93;3.22;;;16.50;99.90;;;;;;4891483;29;37293;-78
2023/06/27 04:46:01;;;;;;;9.40;2.88;;;16.50;99.90;;;;;;4892212;29;37284;-78
2023/06/27 04:48:28;;;;;;;7.20;2.95;;;16.60;99.90;;;;;;4890224;29;47511;-79
2023/06/27 04:50:56;;;;;;;7.75;2.45;;;16.70;99.90;;;;;;4889557;29;37255;-78
2023/06/27 04:53:23;;;;;;;5.63;2.28;;;16.80;99.90;;;;;;4887394;28;37826;-78
2023/06/27 04:55:50;;;;;;;6.38;2.38;;;16.90;99.90;;;;;;4893980;29;37322;-78
2023/06/27 04:58:17;;;;;;;6.95;2.58;;;17.00;99.90;;;;;;4878316;29;39436;-79
2023/06/27 05:00:44;;;;;;;7.75;2.30;;;17.10;99.90;;;;;;4881451;29;39095;-78
2023/06/27 05:03:13;;;;;;;5.43;2.53;;;17.20;99.90;;;;;;4885174;29;38251;-78
2023/06/27 05:05:39;;;;;;;4.82;2.00;;;17.50;99.90;;;;;;4885549;29;36100;-78
2023/06/27 05:08:06;;;;;;;7.78;2.38;;;17.80;99.90;;;;;;4888401;29;38717;-78
2023/06/27 05:10:33;;;;;;;6.38;2.67;;;18.10;99.90;;;;;;4904688;28;38447;-78
2023/06/27 05:13:00;;;;;;;7.20;2.00;;;18.40;96.20;;;;;;4903140;29;37186;-83
2023/06/27 05:15:26;;;;;;;7.00;1.90;;;18.70;95.80;;;;;;4895238;29;38245;-77
2023/06/27 05:17:54;;;;;;;4.63;1.73;;;18.90;86.60;;;;;;4892628;29;38181;-76
2023/06/27 05:20:22;;;;;;;6.63;2.35;;;19.10;76.20;;;;;;4885275;29;37051;-76
2023/06/27 05:22:48;;;;;;;7.50;2.03;;;19.30;74.90;;;;;;4891435;29;38993;-76
2023/06/27 05:25:14;;;;;;;6.50;1.70;;;19.40;59.40;;;;;;4892842;29;36232;-76
2023/06/27 05:27:40;;;;;;;5.97;1.85;;;19.50;48.30;;;;;;4890260;29;37685;-78
2023/06/27 05:30:07;;;;;;;5.07;1.88;;;19.60;24.80;;;;;;4883093;29;38075;-77
2023/06/27 05:32:33;;;;;;;7.35;1.83;;;19.70;17.40;;;;;;4890961;29;37240;-77
2023/06/27 05:34:59;;;;;;;3.53;1.75;;;19.80;10.90;;;;;;4886710;29;37220;-74
2023/06/27 05:37:25;;;;;;;6.30;1.85;;;19.90;14.80;;;;;;4883575;29;38762;-78
2023/06/27 05:39:51;;;;;;;7.18;2.47;;;20.00;1.00;;;;;;4885249;29;37614;-75
2023/06/27 05:42:17;;;;;;;9.95;1.60;;;20.00;17.30;;;;;;4878201;29;37617;-81
2023/06/27 05:44:44;;;;;;;6.22;1.48;;;20.20;9.70;;;;;;4876263;29;36229;-78
2023/06/27 05:47:10;;;;;;;4.93;1.58;;;20.20;1.00;;;;;;4883102;29;38184;-81
2023/06/27 05:49:36;;;;;;;3.17;1.40;;;20.40;1.00;;;;;;4887060;29;37517;-82
2023/06/27 05:52:02;;;;;;;4.65;1.65;;;20.50;1.00;;;;;;4893814;29;38558;-81
2023/06/27 05:54:28;;;;;;;7.75;1.38;;;20.70;1.00;;;;;;4884730;29;37365;-82
2023/06/27 05:56:55;;;;;;;7.47;1.30;;;20.90;1.00;;;;;;4885618;29;37580;-80
2023/06/27 05:59:21;;;;;;;7.88;1.40;;;21.00;1.00;;;;;;4888726;29;37537;-80
2023/06/27 06:01:47;;;;;;;3.65;1.20;;;21.10;1.00;;;;;;4888675;29;37974;-81
2023/06/27 06:04:13;;;;;;;4.57;1.20;;;21.20;1.00;;;;;;4887829;29;35745;-80
2023/06/27 06:06:40;;;;;;;7.18;1.48;;;21.20;1.00;;;;;;4891095;29;37992;-81
2023/06/27 06:09:06;;;;;;;3.70;1.52;;;21.30;1.00;;;;;;4888479;29;37381;-81
2023/06/27 06:11:36;;;;;;;13.05;2.13;;;21.10;1.00;;;;;;4890806;29;37456;-81
2023/06/27 06:14:03;;;;;;;10.45;2.10;;;21.20;1.00;;;;;;4890775;29;36207;-81
2023/06/27 06:16:33;;;;;;;7.68;1.80;;;21.10;1.00;;;;;;4890051;29;37998;-81
2023/06/27 06:19:00;;;;;;;7.68;1.73;;;21.10;1.00;;;;;;4886046;29;38163;-80
2023/06/27 06:21:30;;;;;;;31.40;2.83;;;21.10;1.00;;;;;;4887525;29;37735;-80
2023/06/27 06:23:57;;;;;;;7.45;1.45;;;21.20;1.00;;;;;;4892195;29;36896;-80
2023/06/27 06:26:23;;;;;;;6.40;1.27;;;21.20;1.00;;;;;;4885611;29;37591;-79
2023/06/27 06:28:49;;;;;;;14.25;1.48;;;21.30;1.00;;;;;;4891574;29;39880;-79
2023/06/27 06:31:20;;;;;;;5.43;1.00;;;21.40;1.00;;;;;;4884915;29;37159;-77
2023/06/27 06:33:48;;;;;;;16.00;1.73;;;21.20;1.00;;;;;;4888327;29;35218;-79
2023/06/27 06:36:14;;;;;;;5.80;1.60;;;21.00;1.00;;;;;;4890229;29;37763;-79
2023/06/27 06:38:40;;;;;;;10.07;1.98;;;20.90;1.00;;;;;;4888463;29;38593;-79
2023/06/27 06:41:07;;;;;;;11.00;1.60;;;20.80;1.00;;;;;;4887264;29;38172;-79
2023/06/27 06:43:33;;;;;;;7.63;1.42;;;20.80;1.00;;;;;;4888074;29;36032;-78
2023/06/27 06:45:59;;;;;;;4.80;1.23;;;20.80;1.00;;;;;;4887719;29;37624;-79
2023/06/27 06:48:25;;;;;;;4.13;1.10;;;21.00;1.00;;;;;;4888714;29;38037;-79
2023/06/27 06:50:52;;;;;;;1.98;0.77;;;21.30;1.00;;;;;;4893220;29;37801;-78
2023/06/27 06:53:19;;;;;;;4.30;1.10;;;21.20;1.00;;;;;;4885625;29;37086;-79
2023/06/27 06:55:46;;;;;;;4.22;1.10;;;21.30;1.00;;;;;;4889877;29;39027;-79
2023/06/27 06:58:12;;;;;;;5.10;0.98;;;21.40;1.00;;;;;;4880989;29;38976;-80
2023/06/27 07:00:38;;;;;;;7.15;1.20;;;21.30;1.00;;;;;;4882387;29;36837;-79
2023/06/27 07:03:08;;;;;;;4.97;1.40;;;21.10;1.00;;;;;;4879232;29;37026;-80
2023/06/27 07:05:38;;;;;;;3.97;1.35;;;21.30;1.00;;;;;;4885000;29;38008;-79
2023/06/27 07:08:05;;;;;;;3.53;1.00;;;21.20;99.90;;;;;;4887968;29;37340;-80
2023/06/27 07:10:32;;;;;;;4.88;0.82;;;21.10;99.90;;;;;;4892593;29;37193;-80
2023/06/27 07:13:02;;;;;;;3.45;0.70;;;20.90;99.90;;;;;;4889448;29;36248;-81
2023/06/27 07:15:31;;;;;;;6.95;1.30;;;20.80;99.90;;;;;;4889619;29;46861;-80
2023/06/27 07:17:58;;;;;;;3.25;0.90;;;21.00;99.90;;;;;;4890321;29;37717;-80
2023/06/27 07:20:25;;;;;;;8.38;1.20;;;21.00;1.00;;;;;;4881421;29;37952;-80
2023/06/27 07:22:52;;;;;;;3.70;0.80;;;21.00;1.00;;;;;;4885015;29;37967;-81
2023/06/27 07:25:18;;;;;;;2.10;0.90;;;21.00;1.00;;;;;;4880033;29;37835;-78
2023/06/27 07:27:45;;;;;;;2.67;0.82;;;21.00;1.00;;;;;;4882691;29;35765;-81
2023/06/27 07:30:12;;;;;;;28.52;3.08;;;21.20;1.00;;;;;;4885318;29;35882;-79
2023/06/27 07:32:38;;;;;;;5.93;1.35;;;21.40;1.00;;;;;;4887504;29;36399;-80
2023/06/27 07:35:05;;;;;;;6.38;0.95;;;21.50;1.00;;;;;;4889936;29;38023;-79
2023/06/27 07:37:31;;;;;;;5.32;1.23;;;21.60;99.90;;;;;;4887947;29;47145;-80
2023/06/27 07:40:00;;;;;;;4.63;0.80;;;21.60;99.90;;;;;;4879415;29;37896;-81
2023/06/27 07:42:26;;;;;;;2.97;0.82;;;21.50;99.90;;;;;;4885965;29;36677;-79
2023/06/27 07:44:53;;;;;;;2.97;0.77;;;21.30;1.00;;;;;;4893914;29;37956;-79
2023/06/27 07:47:19;;;;;;;4.85;0.88;;;21.30;1.00;;;;;;4893062;29;37358;-79
2023/06/27 07:49:45;;;;;;;4.00;1.23;;;21.20;99.90;;;;;;4891683;29;36961;-77
2023/06/27 07:52:12;;;;;;;12.40;1.55;;;21.30;1.00;;;;;;4892723;29;36806;-78
2023/06/27 07:54:38;;;;;;;2.05;0.75;;;21.50;1.00;;;;;;4892078;29;39204;-79
2023/06/27 07:57:05;;;;;;;5.88;1.10;;;21.70;1.00;;;;;;4898853;29;38572;-78
2023/06/27 07:59:31;;;;;;;4.65;0.98;;;22.00;1.00;;;;;;4900111;29;37845;-79
2023/06/27 08:01:57;;;;;;;8.68;1.52;;;22.30;1.00;;;;;;4890764;29;37882;-79
2023/06/27 08:04:23;;;;;;;3.47;0.90;;;22.30;18.80;;;;;;4889178;29;37975;-78
2023/06/27 08:06:49;;;;;;;5.95;1.20;;;22.50;99.90;;;;;;4900463;29;38577;-79
2023/06/27 08:09:16;;;;;;;6.57;1.05;;;22.80;99.90;;;;;;4888584;29;38815;-77
2023/06/27 08:11:42;;;;;;;4.90;1.02;;;23.00;99.90;;;;;;4889610;29;36221;-79
2023/06/27 08:14:08;;;;;;;8.60;1.05;;;22.90;99.90;;;;;;4899825;28;37703;-80
2023/06/27 08:16:34;;;;;;;6.10;0.98;;;23.20;1.00;;;;;;4902248;29;38067;-80
2023/06/27 08:19:00;;;;;;;7.20;1.30;;;23.40;1.00;;;;;;4894084;29;38992;-79
2023/06/27 08:21:30;;;;;;;17.20;1.58;;;23.20;1.00;;;;;;4890811;29;35831;-79
2023/06/27 08:23:56;;;;;;;7.38;1.38;;;23.10;24.90;;;;;;4893156;29;38340;-79
2023/06/27 08:26:22;;;;;;;5.43;1.27;;;23.20;1.00;;;;;;4884912;29;38790;-78
2023/06/27 08:28:48;;;;;;;3.83;1.10;;;23.00;1.00;;;;;;4891797;29;38250;-81
2023/06/27 08:31:14;;;;;;;3.60;1.10;;;22.80;1.00;;;;;;4881999;29;36077;-78
2023/06/27 08:33:40;;;;;;;6.45;1.40;;;22.80;1.00;;;;;;4896503;29;38437;-77
2023/06/27 08:36:07;;;;;;;6.05;1.20;;;22.70;99.90;;;;;;4901592;29;38940;-78
2023/06/27 08:38:33;;;;;;;3.92;1.00;;;22.70;1.00;;;;;;4893824;29;37922;-79
2023/06/27 08:41:01;;;;;;;2.97;0.80;;;22.60;24.50;;;;;;4898426;29;36107;-79
2023/06/27 08:43:27;;;;;;;5.38;1.23;;;22.60;1.00;;;;;;4892571;29;47492;-79
2023/06/27 08:45:55;;;;;;;11.40;1.60;;;22.50;1.00;;;;;;4894920;29;39038;-79
2023/06/27 08:48:21;;;;;;;4.32;1.38;;;22.30;99.90;;;;;;4890572;29;38813;-80
2023/06/27 08:50:56;;;;;;;14.15;1.38;;;22.20;1.00;;;;;;4892186;29;38071;-77
2023/06/27 08:53:26;;;;;;;12.60;1.27;;;22.00;1.00;;;;;;4890038;29;38622;-78
2023/06/27 08:55:57;;;;;;;7.55;1.50;;;21.80;99.90;;;;;;4893558;29;38840;-78
2023/06/27 08:58:27;;;;;;;9.18;1.10;;;21.70;1.00;;;;;;4898588;29;37881;-79
2023/06/27 09:00:54;;;;;;;5.60;1.10;;;21.60;1.00;;;;;;4893748;29;35930;-79
2023/06/27 09:03:20;;;;;;;4.78;1.10;;;21.70;1.00;;;;;;4888170;29;38373;-79
2023/06/27 09:05:47;;;;;;;4.30;0.82;;;21.70;1.00;;;;;;4891130;29;37504;-79
2023/06/27 09:08:14;;;;;;;7.47;1.00;;;21.60;99.90;;;;;;4889418;29;37216;-78
2023/06/27 09:10:40;;;;;;;6.32;1.10;;;21.50;1.00;;;;;;4888651;29;37002;-78
2023/06/27 09:13:07;;;;;;;6.70;0.90;;;21.80;99.90;;;;;;4889927;29;38463;-78
2023/06/27 09:15:34;;;;;;;8.43;1.25;;;21.90;1.00;;;;;;4896282;29;37342;-77
2023/06/27 09:18:00;;;;;;;5.40;1.20;;;21.90;99.90;;;;;;4896250;29;36849;-78
2023/06/27 09:20:26;;;;;;;3.78;0.88;;;21.80;1.00;;;;;;4898063;29;37425;-79
2023/06/27 09:22:54;;;;;;;3.75;1.00;;;21.70;99.90;;;;;;4888810;29;38088;-78
2023/06/27 09:25:24;;;;;;;4.80;1.45;;;21.70;1.00;;;;;;4888128;29;38480;-80
2023/06/27 09:27:50;;;;;;;7.55;1.10;;;21.80;1.00;;;;;;4901500;29;36864;-80
2023/06/27 09:30:17;;;;;;;3.00;0.90;;;21.90;1.00;;;;;;4901370;29;37188;-79
2023/06/27 09:32:56;;;;;;;8.45;1.30;;;22.30;1.00;;;;;;4896243;28;39964;-77
2023/06/27 09:35:26;;;;;;;13.20;1.25;;;22.80;1.00;;;;;;4908926;29;38291;-77
2023/06/27 09:37:53;;;;;;;4.40;1.23;;;22.80;1.00;;;;;;4899676;29;38592;-77
2023/06/27 09:40:24;;;;;;;4.95;0.90;;;22.80;1.00;;;;;;4899500;29;37219;-78
2023/06/27 09:42:55;;;;;;;10.23;1.42;;;22.90;1.00;;;;;;4898943;29;37653;-78
2023/06/27 09:45:23;;;;;;;5.30;0.83;;;23.10;1.00;;;;;;4899784;29;37848;-79
2023/06/27 09:47:50;;;;;;;11.50;1.58;;;23.20;10.60;;;;;;4900346;29;38518;-80
2023/06/27 09:50:17;;;;;;;15.27;1.70;;;23.40;99.90;;;;;;4900832;29;35873;-78
2023/06/27 09:52:52;;;;;;;6.18;1.30;;;23.30;1.00;;;;;;4897203;29;40444;-79
2023/06/27 09:55:20;;;;;;;10.77;1.73;;;23.30;99.90;;;;;;4899395;28;37600;-77
2023/06/27 09:57:47;;;;;;;8.32;1.23;;;23.20;1.00;;;;;;4886218;29;36941;-78
2023/06/27 10:00:17;;;;;;;16.10;1.38;;;22.90;99.90;;;;;;4876762;29;37072;-80
2023/06/27 10:02:50;;;;;;;7.93;1.10;;;22.50;1.00;;;;;;4872674;29;37728;-81
2023/06/27 10:05:18;;;;;;;7.30;1.08;;;22.40;99.90;;;;;;4881421;29;39719;-80
2023/06/27 10:07:44;;;;;;;10.73;1.48;;;22.30;1.00;;;;;;4882807;29;37033;-78
2023/06/27 10:10:11;;;;;;;4.32;1.30;;;22.20;1.00;;;;;;4884256;29;37021;-81
2023/06/27 10:12:38;;;;;;;13.98;1.88;;;22.20;1.00;;;;;;4879003;29;37672;-83
2023/06/27 10:15:05;;;;;;;5.80;1.25;;;22.20;24.70;;;;;;4883937;29;37976;-80
2023/06/27 10:17:32;;;;;;;3.95;0.95;;;22.50;1.00;;;;;;4888455;29;38193;-81
2023/06/27 10:19:59;;;;;;;4.28;1.10;;;22.80;1.00;;;;;;4888966;29;37382;-79
2023/06/27 10:22:30;;;;;;;6.18;1.30;;;22.90;99.90;;;;;;4885978;29;38507;-81
2023/06/27 10:25:03;;;;;;;20.35;1.48;;;22.90;96.50;;;;;;4899934;29;35025;-80
2023/06/27 10:27:33;;;;;;;4.65;1.02;;;23.00;1.00;;;;;;4888538;29;36286;-79
2023/06/27 10:30:05;;;;;;;3.15;1.33;;;23.00;1.00;;;;;;4905500;29;37367;-80
2023/06/27 10:32:45;;;;;;;3.15;1.02;;;23.20;1.00;;;;;;4893737;29;38522;-82
2023/06/27 10:35:12;;;;;;;3.90;1.17;;;23.10;1.00;;;;;;4884791;29;38968;-83
2023/06/27 10:37:42;;;;;;;5.15;1.10;;;23.00;1.00;;;;;;4885051;29;37241;-80
2023/06/27 10:40:09;;;;;;;5.88;0.93;;;22.90;1.00;;;;;;4882856;29;35929;-80
2023/06/27 10:42:35;;;;;;;3.50;1.20;;;22.80;1.00;;;;;;4883745;29;37786;-78
2023/06/27 10:45:09;;;;;;;3.50;1.00;;;22.80;99.90;;;;;;4892840;29;38604;-80
2023/06/27 10:47:44;;;;;;;7.65;1.63;;;22.80;99.90;;;;;;4887145;29;47063;-83
2023/06/27 10:50:24;;;;;;;2.65;1.00;;;22.90;99.90;;;;;;4886863;29;36328;-84
2023/06/27 10:53:04;;;;;;;3.67;1.08;;;23.30;1.00;;;;;;4881225;29;39266;-80
2023/06/27 10:55:32;;;;;;;5.47;1.33;;;23.50;1.00;;;;;;4889203;29;47354;-83
2023/06/27 10:58:13;;;;;;;8.65;1.63;;;24.00;99.90;;;;;;4887952;29;37311;-79
2023/06/27 11:00:46;;;;;;;5.57;1.25;;;24.20;1.00;;;;;;4882756;29;47147;-82
2023/06/27 11:03:18;;;;;;;7.60;1.20;;;24.00;1.00;;;;;;4889281;29;39032;-82
2023/06/27 11:05:47;;;;;;;6.10;1.30;;;24.20;1.00;;;;;;4891899;29;38588;-82
2023/06/27 11:08:20;;;;;;;4.10;1.20;;;24.20;99.90;;;;;;4905667;29;38162;-82
2023/06/27 11:11:06;;;;;;;5.97;1.48;;;24.20;99.90;;;;;;4891420;29;36057;-82
2023/06/27 11:13:35;;;;;;;4.15;1.10;;;24.00;99.90;;;;;;4886118;29;47057;-82
2023/06/27 11:16:02;;;;;;;5.40;1.20;;;23.70;99.90;;;;;;4889448;29;37525;-81
2023/06/27 11:18:28;;;;;;;10.60;1.45;;;23.40;99.90;;;;;;4900025;29;47630;-83
2023/06/27 11:20:56;;;;;;;4.85;1.00;;;23.30;99.90;;;;;;4896233;29;36236;-83
2023/06/27 11:23:24;;;;;;;10.23;1.27;;;23.30;99.90;;;;;;4887045;29;37813;-83
2023/06/27 11:25:52;;;;;;;3.78;1.40;;;23.10;99.90;;;;;;4892643;29;38629;-87
2023/06/27 11:28:21;;;;;;;7.40;1.40;;;23.10;99.90;;;;;;4889558;29;36989;-85
2023/06/27 11:30:48;;;;;;;4.18;0.98;;;23.20;99.90;;;;;;4907451;29;36149;-82
2023/06/27 11:33:19;;;;;;;7.03;1.00;;;23.30;99.90;;;;;;4894564;29;37688;-83
2023/06/27 11:35:47;;;;;;;6.95;1.27;;;23.40;99.90;;;;;;4890476;29;38561;-82
2023/06/27 11:38:14;;;;;;;3.63;0.90;;;23.50;99.90;;;;;;4893949;29;36907;-83
2023/06/27 11:40:51;;;;;;;11.48;1.55;;;23.60;99.90;;;;;;4894463;29;37589;-81
2023/06/27 11:43:18;;;;;;;11.35;1.35;;;23.60;99.90;;;;;;4894111;28;39792;-84
2023/06/27 11:45:49;;;;;;;6.72;1.35;;;23.40;99.90;;;;;;4892085;29;38519;-82
2023/06/27 11:48:16;;;;;;;8.15;1.35;;;23.20;99.90;;;;;;4892217;29;37169;-84
2023/06/27 11:51:05;;;;;;;8.52;1.85;;;23.20;99.90;;;;;;4901698;29;36178;-83
2023/06/27 11:53:33;;;;;;;5.57;1.60;;;23.10;99.90;;;;;;4895632;29;48042;-82
2023/06/27 11:56:00;;;;;;;5.43;1.00;;;22.90;99.90;;;;;;4891730;29;38760;-81
2023/06/27 11:58:29;;;;;;;60.88;4.68;;;22.90;99.90;;;;;;4894876;29;38020;-82
2023/06/27 12:00:57;;;;;;;5.00;0.98;;;22.80;99.90;;;;;;4890894;29;36156;-80
2023/06/27 12:03:33;;;;;;;9.50;1.27;;;22.60;99.90;;;;;;4891542;29;37659;-84
2023/06/27 12:05:59;;;;;;;2.70;0.95;;;22.50;99.90;;;;;;4892356;29;37481;-82
2023/06/27 12:08:33;;;;;;;4.13;1.40;;;22.40;99.90;;;;;;4887902;29;36892;-81
2023/06/27 12:11:02;;;;;;;6.30;1.00;;;22.40;99.90;;;;;;4903234;29;36018;-81
2023/06/27 12:13:33;;;;;;;2.55;1.30;;;22.50;99.90;;;;;;4887535;29;47285;-79
2023/06/27 12:16:00;;;;;;;19.65;2.33;;;22.50;99.90;;;;;;4884157;29;39309;-83
2023/06/27 12:18:27;;;;;;;12.85;1.73;;;22.30;99.90;;;;;;4888689;29;37068;-83
2023/06/27 12:20:55;;;;;;;7.82;1.38;;;22.00;99.90;;;;;;4887338;29;38818;-82
2023/06/27 12:23:21;;;;;;;5.80;1.23;;;22.00;99.90;;;;;;4901223;29;39031;-79
2023/06/27 12:25:48;;;;;;;7.10;1.08;;;22.20;99.90;;;;;;4889031;29;37649;-82
2023/06/27 12:28:14;;;;;;;3.72;1.08;;;22.30;99.90;;;;;;4888800;29;36884;-82
2023/06/27 12:30:41;;;;;;;4.43;0.82;;;22.40;99.90;;;;;;4902784;29;37622;-82
2023/06/27 12:33:08;;;;;;;7.47;1.10;;;22.50;99.90;;;;;;4893194;28;38875;-82
2023/06/27 12:35:34;;;;;;;6.35;1.08;;;22.50;99.90;;;;;;4908602;29;37500;-81
2023/06/27 12:38:00;;;;;;;8.88;1.10;;;22.50;99.90;;;;;;4893703;29;36703;-83
2023/06/27 12:40:30;;;;;;;4.93;1.00;;;22.50;99.90;;;;;;4891939;29;46814;-82
2023/06/27 12:43:01;;;;;;;3.60;0.75;;;22.70;99.90;;;;;;4893673;29;39891;-82
2023/06/27 12:45:30;;;;;;;5.47;1.38;;;22.90;99.90;;;;;;4893245;29;47161;-82
2023/06/27 12:47:57;;;;;;;9.07;1.60;;;22.90;99.90;;;;;;4889663;29;37077;-83
2023/06/27 12:50:23;;;;;;;4.97;1.10;;;23.00;99.90;;;;;;4898639;29;36110;-81
2023/06/27 12:52:49;;;;;;;7.65;1.20;;;23.00;99.90;;;;;;4911588;29;37586;-81
2023/06/27 12:55:17;;;;;;;10.45;1.35;;;23.00;99.90;;;;;;4895108;29;38681;-82